Flight Track Log - Related Links

Times and Time Zones

All times are in EDT time to prevent confusion due to time zone crossing. See the EJA646 flight status page for this flight to view local times or setup timezone preferences in your user account.

Time Position Orientation Groundspeed Altitude Reporting Facility
EDT Latitude Longitude Course Direction KTS MPH feet Rate Location/Type
Sun 04:11:18 PM 34.0833 -84.8167 90° East 165 190 3,900  Level Atlanta TRACON
Sun 04:12:18 PM 34.0833 -84.7500 90° East 205 236 7,700 2,500 Climbing Atlanta TRACON
Sun 04:13:18 PM 34.0667 -84.6667 104° East 260 299 8,900 737 Climbing Atlanta TRACON
Sun 04:14:12 PM 34.0500 -84.6000 107° East 277 319 9,100 53 Climbing Atlanta TRACON
Sun 04:15:12 PM 34.0500 -84.5000 90° East 268 308 9,000 -50 Descending Atlanta TRACON
Sun 04:16:12 PM 34.0333 -84.4167 104° East 257 296 9,000  Level Atlanta TRACON
Sun 04:17:12 PM 34.0333 -84.3333 90° East 252 290 9,000 99 Level Atlanta TRACON
Sun 04:18:13 PM 34.0167 -84.2500 104° East 226 260 9,200 496 Climbing Atlanta TRACON
Sun 04:19:13 PM 34.0167 -84.1833 90° East 242 278 10,000 282 Climbing Atlanta TRACON
Sun 04:21:03 PM 33.9653 -84.0289 112° Southeast 290 334 10,000 106 Level Atlanta Center
Sun 04:22:03 PM 33.9258 -83.9386 118° Southeast 303 349 10,300 1,650 Climbing Atlanta Center
Sun 04:23:03 PM 33.8900 -83.8486 116° Southeast 298 343 13,300 2,300 Climbing Atlanta Center
Sun 04:24:03 PM 33.8461 -83.7461 117° Southeast 303 349 14,900 1,800 Climbing Atlanta Center
Sun 04:25:03 PM 33.8042 -83.6489 117° Southeast 317 365 16,900 1,950 Climbing Atlanta Center
Sun 04:26:03 PM 33.7600 -83.5492 118° Southeast 332 382 18,800 1,950 Climbing Atlanta Center
Sun 04:27:03 PM 33.7136 -83.4469 119° Southeast 337 388 20,800 1,500 Climbing Atlanta Center
Sun 04:28:03 PM 33.6650 -83.3400 119° Southeast 347 399 21,800 1,100 Climbing Atlanta Center
Sun 04:29:03 PM 33.6619 -83.2078 92° East 362 417 23,000 1,200 Climbing Atlanta Center
Sun 04:30:03 PM 33.6672 -83.0703 87° East 379 436 24,200 1,300 Climbing Atlanta Center
Sun 04:31:03 PM 33.6744 -82.9306 86° East 398 458 25,600 1,250 Climbing Atlanta Center
Sun 04:32:03 PM 33.6794 -82.7881 88° East 423 487 26,700 1,050 Climbing Atlanta Center
Sun 04:33:03 PM 33.6842 -82.6608 87° East 423 487 27,700 1,010 Climbing Atlanta Center
Sun 04:35:19 PM 33.6994 -82.3283 87° East 448 516 30,000 704 Climbing Jacksonville Center
Sun 04:36:19 PM 33.7072 -82.1786 86° East 448 516 30,000  Level Jacksonville Center
Sun 04:37:19 PM 33.7269 -82.0261 81° East 448 516 30,000  Level Jacksonville Center
Sun 04:38:19 PM 33.7489 -81.8708 80° East 459 528 30,000  Level Jacksonville Center
Sun 04:39:19 PM 33.7703 -81.7133 81° East 472 543 30,000  Level Jacksonville Center
Sun 04:40:19 PM 33.7917 -81.5556 81° East 472 543 30,000  Level Jacksonville Center
Sun 04:41:19 PM 33.8128 -81.3928 81° East 478 550 30,000 -900 Level Jacksonville Center
Sun 04:42:19 PM 33.8358 -81.2297 80° East 485 558 28,200 -1,900 Descending Jacksonville Center
Sun 04:43:19 PM 33.8567 -81.0694 81° East 485 558 26,200 -2,132 Descending Jacksonville Center
Sun 04:44:20 PM 33.8581 -80.8919 89° East 485 558 23,900 -2,150 Descending Jacksonville Center
Sun 04:45:19 PM 33.8556 -80.7394 91° East 472 543 21,900 -2,017 Descending Jacksonville Center
Sun 04:46:19 PM 33.8528 -80.5869 91° East 467 537 19,900 -1,450 Descending Jacksonville Center
Sun 04:47:19 PM 33.8503 -80.4419 91° East 454 522 19,000 -450 Descending Jacksonville Center
Sun 04:48:19 PM 33.8494 -80.3019 90° East 432 497 19,000  Level Jacksonville Center
Sun 04:49:19 PM 33.8464 -80.1594 91° East 419 482 19,000  Level Jacksonville Center
Sun 04:50:19 PM 33.8433 -80.0219 91° East 419 482 19,000 -200 Level Jacksonville Center
Sun 04:51:19 PM 33.8403 -79.8847 91° East 414 476 18,600 -1,000 Descending Jacksonville Center
Sun 04:52:19 PM 33.8369 -79.7472 92° East 414 476 17,000 -1,800 Descending Jacksonville Center
Sun 04:53:19 PM 33.8358 -79.6222 91° East 395 455 15,000 -1,950 Descending Jacksonville Center
Sun 04:54:19 PM 33.8347 -79.5022 91° East 379 436 13,100 -1,800 Descending Jacksonville Center
Sun 04:55:19 PM 33.8256 -79.3953 96° East 366 421 11,400 -1,400 Descending Jacksonville Center
Sun 04:56:19 PM 33.8164 -79.2931 96° East 336 387 10,300 -1,750 Descending Jacksonville Center
Sun 04:57:19 PM 33.7828 -79.2094 116° Southeast 292 336 7,900 -2,550 Descending Jacksonville Center
Sun 04:58:19 PM 33.7492 -79.1308 117° Southeast 277 319 5,200 -2,000 Descending Jacksonville Center
Sun 04:59:19 PM 33.7197 -79.0597 116° Southeast 252 290 3,900 -650 Descending Jacksonville Center
Sun 05:00:19 PM 33.6950 -78.9986 116° Southeast 223 257 3,900  Level Jacksonville Center
Sun 05:02:00 PM 33.7691 -78.8245 90° East  Level Estimated
Sun 05:09:00 PM 33.8000 -78.7167 90° East  Level FlightAware Approximate
Sun 05:10:00 PM 33.8117 -78.7239 90° East  Level Estimated
Sun 05:11:00 PM 33.8117 -78.7239 90° East  Level Estimated
Sun 05:12:00 PM 33.8117 -78.7239 90° East  Level Estimated

Login

Don't have an account? Register now (free) for customized features, flight alerts, and more!